Time;durP1;ratioP1;P1;durP2;ratioP2;P2;SDS_P1;SDS_P2;PMS_P1;PMS_P2;Temp;Humidity;BMP_temperature;BMP_pressure;BME280_temperature;BME280_humidity;BME280_pressure;Samples;Min_cycle;Max_cycle;Signal;HPM_P1;HPM_P2
2024/01/31 00:05:34;;;;;;;49.10;23.10;;;;;;;4.91;80.24;101450.73;681309;1268;140545;-81
2024/01/31 00:20:45;;;;;;;45.60;21.30;;;;;;;4.88;80.76;101433.56;681239;1267;139868;-81
2024/01/31 00:35:52;;;;;;;49.00;21.00;;;;;;;4.90;80.21;101435.53;681162;1268;139963;-81
2024/01/31 00:51:00;;;;;;;54.00;23.60;;;;;;;4.84;80.31;101441.89;681170;1268;141185;-81
2024/01/31 01:06:06;;;;;;;50.10;23.80;;;;;;;4.70;80.87;101429.33;681271;1267;140424;-81
2024/01/31 01:21:13;;;;;;;47.70;23.00;;;;;;;4.65;81.61;101440.63;681322;1268;140297;-81
2024/01/31 01:36:23;;;;;;;49.80;23.10;;;;;;;4.60;81.84;101430.46;681100;1267;140103;-82
2024/01/31 01:51:30;;;;;;;46.10;23.50;;;;;;;4.69;82.70;101429.58;681270;1269;139373;-81
2024/01/31 02:06:36;;;;;;;53.60;25.00;;;;;;;4.90;82.74;101400.14;681182;1268;140586;-83
2024/01/31 02:21:44;;;;;;;47.90;22.40;;;;;;;5.04;83.09;101403.17;681206;1279;140043;-82
2024/01/31 02:36:50;;;;;;;52.50;24.80;;;;;;;5.19;82.79;101397.94;681488;1266;140750;-81
2024/01/31 02:51:56;;;;;;;45.90;24.40;;;;;;;5.30;83.06;101394.14;681614;1270;140360;-81
2024/01/31 03:07:03;;;;;;;47.00;22.70;;;;;;;5.37;82.96;101387.04;681664;1266;140728;-81
2024/01/31 03:22:09;;;;;;;53.20;25.20;;;;;;;5.35;83.93;101394.77;681649;1267;140316;-81
2024/01/31 03:37:16;;;;;;;52.30;25.20;;;;;;;5.37;85.26;101396.92;681766;1266;140023;-82
2024/01/31 03:52:25;;;;;;;47.10;25.30;;;;;;;5.48;85.31;101403.17;681700;1266;140385;-81
2024/01/31 04:07:32;;;;;;;47.70;25.20;;;;;;;5.56;86.18;101414.93;681657;1267;140018;-81
2024/01/31 04:22:37;;;;;;;55.30;24.80;;;;;;;5.71;86.71;101409.16;681313;1269;139183;-81
2024/01/31 04:37:44;;;;;;;57.80;24.70;;;;;;;5.73;88.01;101406.12;681589;1276;139531;-80
2024/01/31 04:52:50;;;;;;;47.40;24.20;;;;;;;5.63;87.89;101411.30;681324;1278;140520;-82
2024/01/31 05:07:57;;;;;;;58.60;25.50;;;;;;;5.54;88.45;101410.88;681542;1262;140346;-81
2024/01/31 05:23:05;;;;;;;49.30;23.70;;;;;;;5.57;89.22;101415.58;681270;1264;139433;-81
2024/01/31 05:38:11;;;;;;;49.90;23.60;;;;;;;5.67;90.06;101412.52;681390;1263;140325;-82
2024/01/31 05:53:18;;;;;;;49.50;24.60;;;;;;;5.86;90.46;101409.10;681627;1262;139761;-81
2024/01/31 06:08:25;;;;;;;131.70;54.40;;;;;;;5.98;90.68;101402.80;681787;1265;139182;-84
2024/01/31 06:23:32;;;;;;;60.50;28.90;;;;;;;6.26;90.57;101408.16;681332;1264;140754;-83
2024/01/31 06:38:38;;;;;;;82.80;38.90;;;;;;;6.33;91.43;101412.50;681643;1263;139838;-84
2024/01/31 06:53:46;;;;;;;68.00;35.00;;;;;;;6.38;91.29;101420.90;681503;1263;139440;-84
2024/01/31 07:08:52;;;;;;;62.60;31.30;;;;;;;6.39;92.11;101420.17;681397;1263;140844;-83
2024/01/31 07:23:58;;;;;;;98.80;46.90;;;;;;;6.49;92.56;101416.34;680953;1267;635328;-82
2024/01/31 07:39:20;;;;;;;169.80;76.10;;;;;;;6.61;92.85;101424.58;681399;1262;140287;-82
2024/01/31 07:54:27;;;;;;;98.90;46.10;;;;;;;6.61;94.49;101428.05;681619;1265;139924;-83
2024/01/31 08:09:33;;;;;;;60.40;32.00;;;;;;;6.76;94.79;101440.45;681380;1265;139131;-83
2024/01/31 08:24:42;;;;;;;59.70;25.30;;;;;;;6.95;95.06;101450.23;681436;1262;140634;-85
2024/01/31 08:39:48;;;;;;;43.90;25.20;;;;;;;7.01;95.90;101448.85;681522;1267;140027;-82
2024/01/31 08:54:57;;;;;;;50.40;27.90;;;;;;;7.06;97.07;101457.08;681711;1263;139884;-84
2024/01/31 09:10:04;;;;;;;72.10;32.60;;;;;;;7.20;97.87;101459.11;681326;1262;138983;-83
2024/01/31 09:25:11;;;;;;;49.80;28.30;;;;;;;7.77;97.70;101458.02;681777;1262;140312;-84
2024/01/31 09:40:22;;;;;;;39.30;23.10;;;;;;;8.25;96.56;101450.75;681453;1267;140058;-84
2024/01/31 09:55:30;;;;;;;32.80;18.50;;;;;;;8.87;95.50;101446.46;681690;1266;139431;-81
2024/01/31 10:10:38;;;;;;;70.10;30.90;;;;;;;9.16;93.77;101427.94;681583;1265;140685;-82
2024/01/31 10:31:04;;;;;;;41.50;26.90;;;;;;;9.17;91.36;101413.73;659170;1301;564950;-82
2024/01/31 10:46:08;;;;;;;34.40;21.00;;;;;;;9.02;91.62;101383.77;674121;1273;139185;-82
2024/01/31 11:01:21;;;;;;;27.10;16.20;;;;;;;8.99;93.39;101369.13;672691;1276;138787;-82
2024/01/31 11:16:25;;;;;;;34.80;21.80;;;;;;;8.79;95.24;101378.73;674750;1278;139477;-82
2024/01/31 11:31:30;;;;;;;32.80;21.40;;;;;;;8.87;94.91;101385.73;669446;1277;139715;-82
2024/01/31 11:46:35;;;;;;;24.10;16.10;;;;;;;8.81;95.29;101396.79;669720;1289;139144;-81
2024/01/31 12:01:39;;;;;;;21.50;13.70;;;;;;;8.74;95.36;101394.27;671425;1274;138979;-82
2024/01/31 12:16:43;;;;;;;45.00;19.90;;;;;;;8.83;94.65;101383.58;672845;1273;138753;-81
2024/01/31 12:31:47;;;;;;;88.10;44.60;;;;;;;8.79;94.32;101372.14;672688;1267;138612;-82
2024/01/31 12:46:51;;;;;;;60.40;32.40;;;;;;;8.91;93.83;101369.09;676478;1264;138668;-84
2024/01/31 13:01:55;;;;;;;29.10;17.20;;;;;;;8.85;92.92;101364.61;673752;1268;139672;-84
2024/01/31 13:16:59;;;;;;;38.70;26.80;;;;;;;9.01;91.55;101356.11;672601;1270;139229;-82
2024/01/31 13:32:09;;;;;;;34.50;21.80;;;;;;;9.08;90.13;101345.02;672166;1267;139987;-83
2024/01/31 13:47:18;;;;;;;40.00;14.00;;;;;;;8.84;89.35;101358.94;675595;1269;138884;-82
2024/01/31 14:02:24;;;;;;;69.60;31.00;;;;;;;8.73;88.78;101365.33;676706;1268;140034;-83
2024/01/31 14:17:27;;;;;;;87.50;22.10;;;;;;;8.43;89.96;101372.95;679312;1269;140106;-83
2024/01/31 14:32:31;;;;;;;34.90;12.80;;;;;;;7.97;93.18;101366.16;678120;1264;139083;-83
2024/01/31 14:47:36;;;;;;;20.90;7.70;;;;;;;7.80;94.38;101370.46;679893;1268;140497;-82
2024/01/31 15:02:43;;;;;;;13.70;7.10;;;;;;;7.47;94.24;101373.27;676104;1266;140204;-83
2024/01/31 15:17:53;;;;;;;18.60;7.80;;;;;;;7.23;94.05;101394.43;674676;1268;139505;-81
2024/01/31 15:33:00;;;;;;;25.70;11.10;;;;;;;6.87;93.66;101407.56;676092;1268;138352;-80
2024/01/31 15:48:04;;;;;;;25.20;12.40;;;;;;;6.73;92.60;101417.16;674745;1265;140079;-80
2024/01/31 16:03:09;;;;;;;20.50;7.20;;;;;;;6.58;92.09;101411.17;678526;1270;139027;-80
2024/01/31 16:18:15;;;;;;;30.70;15.70;;;;;;;6.49;91.56;101409.23;679139;1268;140194;-79
2024/01/31 16:33:23;;;;;;;46.30;18.60;;;;;;;6.41;91.32;101407.21;677026;1268;139832;-80
2024/01/31 16:48:28;;;;;;;77.60;25.60;;;;;;;6.33;90.05;101411.10;676314;1268;141654;-81
2024/01/31 17:03:33;;;;;;;38.90;17.30;;;;;;;6.24;88.82;101391.60;678238;1265;138619;-81
2024/01/31 17:18:40;;;;;;;48.50;18.30;;;;;;;6.18;86.71;101392.74;674202;1268;139954;-81
2024/01/31 17:33:44;;;;;;;96.80;29.60;;;;;;;6.17;84.34;101389.48;675815;1265;138995;-81
2024/01/31 17:48:49;;;;;;;55.70;18.80;;;;;;;5.86;82.04;101390.20;674465;1268;140001;-81
2024/01/31 18:03:54;;;;;;;45.50;15.70;;;;;;;5.29;81.85;101381.02;680214;1268;139816;-81
2024/01/31 18:19:04;;;;;;;52.80;18.00;;;;;;;4.78;82.68;101370.74;679111;1268;140468;-79
2024/01/31 18:34:08;;;;;;;24.70;10.00;;;;;;;4.48;83.44;101347.34;679828;1268;140307;-79
2024/01/31 18:49:16;;;;;;;43.30;12.50;;;;;;;4.45;83.24;101338.47;678969;1268;139650;-80
2024/01/31 19:04:21;;;;;;;39.90;12.90;;;;;;;4.54;82.52;101321.27;678817;1266;139481;-80
2024/01/31 19:19:25;;;;;;;29.60;8.00;;;;;;;4.48;82.57;101304.21;679319;1273;139464;-80
2024/01/31 19:34:29;;;;;;;34.00;12.90;;;;;;;4.36;82.40;101279.27;679860;1268;139540;-80
2024/01/31 19:49:37;;;;;;;45.10;17.60;;;;;;;4.32;82.66;101254.34;679854;1268;138750;-80
2024/01/31 20:04:44;;;;;;;31.40;12.30;;;;;;;4.55;82.27;101229.55;679738;1271;139327;-81
2024/01/31 20:19:49;;;;;;;50.10;14.30;;;;;;;4.92;82.25;101199.19;678904;1269;140092;-81
2024/01/31 20:34:53;;;;;;;34.60;13.70;;;;;;;4.97;82.85;101175.34;677762;1268;139476;-81
2024/01/31 20:49:57;;;;;;;25.50;10.50;;;;;;;5.02;82.88;101153.42;679342;1266;141158;-80
2024/01/31 21:05:03;;;;;;;17.60;7.60;;;;;;;5.10;82.93;101117.11;677039;1268;139706;-81
2024/01/31 21:20:07;;;;;;;18.10;9.40;;;;;;;5.12;83.71;101085.98;678913;1269;138492;-81
2024/01/31 21:35:17;;;;;;;19.70;8.60;;;;;;;5.27;83.95;101058.27;676937;1269;140556;-82
2024/01/31 21:50:29;;;;;;;14.60;8.30;;;;;;;5.18;84.85;101014.72;678236;1271;140189;-81
2024/01/31 22:05:33;;;;;;;14.60;8.70;;;;;;;5.19;84.30;100990.41;679116;1266;139049;-82
2024/01/31 22:20:37;;;;;;;9.00;5.80;;;;;;;5.25;83.40;100958.87;678745;1270;139262;-81
2024/01/31 22:35:41;;;;;;;10.40;6.20;;;;;;;5.23;82.45;100935.23;677628;1270;141842;-81
2024/01/31 22:50:45;;;;;;;10.50;6.90;;;;;;;5.17;83.02;100928.94;677519;1271;139206;-81
2024/01/31 23:05:48;;;;;;;10.70;7.00;;;;;;;5.13;83.19;100918.90;676700;1266;139210;-81
2024/01/31 23:20:52;;;;;;;16.60;10.50;;;;;;;5.11;83.05;100861.49;679039;1265;139307;-81
2024/01/31 23:35:56;;;;;;;20.40;13.00;;;;;;;5.18;83.06;100811.33;680984;1265;140166;-82
2024/01/31 23:51:01;;;;;;;26.70;16.60;;;;;;;5.18;83.81;100771.09;676285;1277;139005;-81
